sensor_id;sensor_type;location;lat;lon;timestamp;P1;durP1;ratioP1;P2;durP2;ratioP2
24617;SDS011;12762;51.730;5.356;2023-12-29T00:01:30;9.73;;;1.50;;
24617;SDS011;12762;51.730;5.356;2023-12-29T00:03:57;8.97;;;1.40;;
24617;SDS011;12762;51.730;5.356;2023-12-29T00:06:24;6.63;;;1.13;;
24617;SDS011;12762;51.730;5.356;2023-12-29T00:08:51;9.40;;;2.00;;
24617;SDS011;12762;51.730;5.356;2023-12-29T00:11:21;10.00;;;1.57;;
24617;SDS011;12762;51.730;5.356;2023-12-29T00:13:48;8.83;;;1.50;;
24617;SDS011;12762;51.730;5.356;2023-12-29T00:16:17;12.60;;;2.07;;
24617;SDS011;12762;51.730;5.356;2023-12-29T00:18:44;7.43;;;1.50;;
24617;SDS011;12762;51.730;5.356;2023-12-29T00:21:11;6.60;;;1.53;;
24617;SDS011;12762;51.730;5.356;2023-12-29T00:23:38;9.50;;;1.53;;
24617;SDS011;12762;51.730;5.356;2023-12-29T00:26:05;6.47;;;1.20;;
24617;SDS011;12762;51.730;5.356;2023-12-29T00:28:32;10.90;;;1.40;;
24617;SDS011;12762;51.730;5.356;2023-12-29T00:31:07;9.70;;;1.70;;
24617;SDS011;12762;51.730;5.356;2023-12-29T00:33:34;10.07;;;1.83;;
24617;SDS011;12762;51.730;5.356;2023-12-29T00:36:03;8.90;;;1.47;;
24617;SDS011;12762;51.730;5.356;2023-12-29T00:38:31;5.67;;;1.43;;
24617;SDS011;12762;51.730;5.356;2023-12-29T00:40:57;6.67;;;1.40;;
24617;SDS011;12762;51.730;5.356;2023-12-29T00:43:24;11.43;;;1.60;;
24617;SDS011;12762;51.730;5.356;2023-12-29T00:45:54;9.70;;;1.47;;
24617;SDS011;12762;51.730;5.356;2023-12-29T00:48:20;8.77;;;1.70;;
24617;SDS011;12762;51.730;5.356;2023-12-29T00:50:48;8.30;;;1.90;;
24617;SDS011;12762;51.730;5.356;2023-12-29T00:53:14;11.83;;;2.00;;
24617;SDS011;12762;51.730;5.356;2023-12-29T00:55:41;9.13;;;2.07;;
24617;SDS011;12762;51.730;5.356;2023-12-29T00:58:08;11.30;;;1.97;;
24617;SDS011;12762;51.730;5.356;2023-12-29T01:00:35;11.50;;;1.63;;
24617;SDS011;12762;51.730;5.356;2023-12-29T01:03:02;12.40;;;1.90;;
24617;SDS011;12762;51.730;5.356;2023-12-29T01:05:29;5.07;;;1.17;;
24617;SDS011;12762;51.730;5.356;2023-12-29T01:07:55;8.23;;;1.50;;
24617;SDS011;12762;51.730;5.356;2023-12-29T01:10:23;13.30;;;1.97;;
24617;SDS011;12762;51.730;5.356;2023-12-29T01:12:49;7.07;;;1.70;;
24617;SDS011;12762;51.730;5.356;2023-12-29T01:15:16;9.60;;;1.53;;
24617;SDS011;12762;51.730;5.356;2023-12-29T01:17:43;7.17;;;1.40;;
24617;SDS011;12762;51.730;5.356;2023-12-29T01:20:10;10.87;;;1.53;;
24617;SDS011;12762;51.730;5.356;2023-12-29T01:22:37;5.17;;;1.23;;
24617;SDS011;12762;51.730;5.356;2023-12-29T01:25:04;10.13;;;2.13;;
24617;SDS011;12762;51.730;5.356;2023-12-29T01:27:32;12.87;;;1.50;;
24617;SDS011;12762;51.730;5.356;2023-12-29T01:29:59;8.60;;;1.37;;
24617;SDS011;12762;51.730;5.356;2023-12-29T01:32:26;8.07;;;1.37;;
24617;SDS011;12762;51.730;5.356;2023-12-29T01:34:53;6.40;;;1.40;;
24617;SDS011;12762;51.730;5.356;2023-12-29T01:37:20;9.93;;;1.60;;
24617;SDS011;12762;51.730;5.356;2023-12-29T01:39:46;8.37;;;1.53;;
24617;SDS011;12762;51.730;5.356;2023-12-29T01:42:13;7.43;;;1.47;;
24617;SDS011;12762;51.730;5.356;2023-12-29T01:44:40;11.23;;;1.60;;
24617;SDS011;12762;51.730;5.356;2023-12-29T01:47:11;9.33;;;1.90;;
24617;SDS011;12762;51.730;5.356;2023-12-29T01:49:44;7.37;;;1.40;;
24617;SDS011;12762;51.730;5.356;2023-12-29T01:52:13;5.07;;;1.30;;
24617;SDS011;12762;51.730;5.356;2023-12-29T01:54:42;6.73;;;1.47;;
24617;SDS011;12762;51.730;5.356;2023-12-29T01:57:13;7.83;;;1.63;;
24617;SDS011;12762;51.730;5.356;2023-12-29T01:59:40;10.43;;;1.87;;
24617;SDS011;12762;51.730;5.356;2023-12-29T02:02:11;10.13;;;1.67;;
24617;SDS011;12762;51.730;5.356;2023-12-29T02:04:39;10.07;;;1.53;;
24617;SDS011;12762;51.730;5.356;2023-12-29T02:07:08;8.10;;;1.43;;
24617;SDS011;12762;51.730;5.356;2023-12-29T02:09:35;7.90;;;1.33;;
24617;SDS011;12762;51.730;5.356;2023-12-29T02:12:02;10.07;;;1.67;;
24617;SDS011;12762;51.730;5.356;2023-12-29T02:14:29;10.20;;;1.60;;
24617;SDS011;12762;51.730;5.356;2023-12-29T02:20:04;11.77;;;1.70;;
24617;SDS011;12762;51.730;5.356;2023-12-29T02:22:31;14.00;;;2.37;;
24617;SDS011;12762;51.730;5.356;2023-12-29T02:24:58;8.53;;;1.20;;
24617;SDS011;12762;51.730;5.356;2023-12-29T02:30:32;6.90;;;1.33;;
24617;SDS011;12762;51.730;5.356;2023-12-29T02:33:05;7.17;;;1.30;;
24617;SDS011;12762;51.730;5.356;2023-12-29T02:35:46;9.37;;;1.80;;
24617;SDS011;12762;51.730;5.356;2023-12-29T02:38:15;9.97;;;2.13;;
24617;SDS011;12762;51.730;5.356;2023-12-29T02:40:42;9.50;;;1.83;;
24617;SDS011;12762;51.730;5.356;2023-12-29T02:43:09;7.50;;;1.60;;
24617;SDS011;12762;51.730;5.356;2023-12-29T02:45:36;7.37;;;1.40;;
24617;SDS011;12762;51.730;5.356;2023-12-29T02:48:03;8.50;;;1.93;;
24617;SDS011;12762;51.730;5.356;2023-12-29T02:50:31;5.43;;;1.13;;
24617;SDS011;12762;51.730;5.356;2023-12-29T02:52:58;8.17;;;1.50;;
24617;SDS011;12762;51.730;5.356;2023-12-29T02:55:25;6.47;;;1.37;;
24617;SDS011;12762;51.730;5.356;2023-12-29T02:57:52;8.77;;;1.30;;
24617;SDS011;12762;51.730;5.356;2023-12-29T03:00:18;10.60;;;1.87;;
24617;SDS011;12762;51.730;5.356;2023-12-29T03:02:45;7.10;;;1.60;;
24617;SDS011;12762;51.730;5.356;2023-12-29T03:05:12;10.07;;;1.70;;
24617;SDS011;12762;51.730;5.356;2023-12-29T03:07:42;10.37;;;1.70;;
24617;SDS011;12762;51.730;5.356;2023-12-29T03:10:09;11.13;;;1.53;;
24617;SDS011;12762;51.730;5.356;2023-12-29T03:12:39;14.83;;;1.90;;
24617;SDS011;12762;51.730;5.356;2023-12-29T03:15:06;6.90;;;1.60;;
24617;SDS011;12762;51.730;5.356;2023-12-29T03:17:33;10.00;;;1.70;;
24617;SDS011;12762;51.730;5.356;2023-12-29T03:20:00;6.10;;;1.40;;
24617;SDS011;12762;51.730;5.356;2023-12-29T03:22:35;5.87;;;1.30;;
24617;SDS011;12762;51.730;5.356;2023-12-29T03:25:02;12.93;;;1.80;;
24617;SDS011;12762;51.730;5.356;2023-12-29T03:27:29;10.47;;;2.10;;
24617;SDS011;12762;51.730;5.356;2023-12-29T03:29:56;8.17;;;1.57;;
24617;SDS011;12762;51.730;5.356;2023-12-29T03:32:23;13.30;;;1.80;;
24617;SDS011;12762;51.730;5.356;2023-12-29T03:34:50;8.30;;;1.87;;
24617;SDS011;12762;51.730;5.356;2023-12-29T03:37:17;5.57;;;1.57;;
24617;SDS011;12762;51.730;5.356;2023-12-29T03:39:44;8.73;;;1.57;;
24617;SDS011;12762;51.730;5.356;2023-12-29T03:42:10;14.40;;;1.90;;
24617;SDS011;12762;51.730;5.356;2023-12-29T03:44:37;7.00;;;1.40;;
24617;SDS011;12762;51.730;5.356;2023-12-29T03:47:04;9.50;;;1.47;;
24617;SDS011;12762;51.730;5.356;2023-12-29T03:49:34;12.90;;;2.37;;
24617;SDS011;12762;51.730;5.356;2023-12-29T03:52:01;9.57;;;1.80;;
24617;SDS011;12762;51.730;5.356;2023-12-29T03:54:31;9.97;;;1.90;;
24617;SDS011;12762;51.730;5.356;2023-12-29T03:56:58;12.07;;;1.50;;
24617;SDS011;12762;51.730;5.356;2023-12-29T03:59:24;11.27;;;1.90;;
24617;SDS011;12762;51.730;5.356;2023-12-29T04:01:51;14.33;;;2.10;;
24617;SDS011;12762;51.730;5.356;2023-12-29T04:04:18;8.43;;;1.87;;
24617;SDS011;12762;51.730;5.356;2023-12-29T04:06:45;14.13;;;2.23;;
24617;SDS011;12762;51.730;5.356;2023-12-29T04:09:12;10.90;;;1.70;;
24617;SDS011;12762;51.730;5.356;2023-12-29T04:11:38;11.27;;;1.67;;
24617;SDS011;12762;51.730;5.356;2023-12-29T04:14:05;16.17;;;1.87;;
24617;SDS011;12762;51.730;5.356;2023-12-29T04:16:36;11.50;;;2.30;;
24617;SDS011;12762;51.730;5.356;2023-12-29T04:19:04;9.23;;;2.33;;
24617;SDS011;12762;51.730;5.356;2023-12-29T04:21:33;8.83;;;1.73;;
24617;SDS011;12762;51.730;5.356;2023-12-29T04:24:00;14.23;;;1.80;;
24617;SDS011;12762;51.730;5.356;2023-12-29T04:26:26;13.37;;;2.17;;
24617;SDS011;12762;51.730;5.356;2023-12-29T04:28:53;8.27;;;1.80;;
24617;SDS011;12762;51.730;5.356;2023-12-29T04:31:20;13.17;;;2.23;;
24617;SDS011;12762;51.730;5.356;2023-12-29T04:33:47;18.83;;;2.37;;
24617;SDS011;12762;51.730;5.356;2023-12-29T04:36:13;8.43;;;1.47;;
24617;SDS011;12762;51.730;5.356;2023-12-29T04:38:40;14.83;;;2.03;;
24617;SDS011;12762;51.730;5.356;2023-12-29T04:41:07;10.83;;;1.87;;
24617;SDS011;12762;51.730;5.356;2023-12-29T04:43:34;12.30;;;2.50;;
24617;SDS011;12762;51.730;5.356;2023-12-29T04:46:01;11.43;;;1.57;;
24617;SDS011;12762;51.730;5.356;2023-12-29T04:48:28;12.27;;;1.80;;
24617;SDS011;12762;51.730;5.356;2023-12-29T04:50:54;9.43;;;2.20;;
24617;SDS011;12762;51.730;5.356;2023-12-29T04:53:24;11.50;;;1.90;;
24617;SDS011;12762;51.730;5.356;2023-12-29T04:55:51;16.00;;;1.70;;
24617;SDS011;12762;51.730;5.356;2023-12-29T04:58:17;9.33;;;1.67;;
24617;SDS011;12762;51.730;5.356;2023-12-29T05:00:50;12.90;;;2.10;;
24617;SDS011;12762;51.730;5.356;2023-12-29T05:03:17;10.30;;;2.00;;
24617;SDS011;12762;51.730;5.356;2023-12-29T05:05:44;12.40;;;2.00;;
24617;SDS011;12762;51.730;5.356;2023-12-29T05:08:11;14.43;;;2.53;;
24617;SDS011;12762;51.730;5.356;2023-12-29T05:10:37;13.73;;;2.27;;
24617;SDS011;12762;51.730;5.356;2023-12-29T05:13:04;18.27;;;2.00;;
24617;SDS011;12762;51.730;5.356;2023-12-29T05:15:31;18.70;;;2.70;;
24617;SDS011;12762;51.730;5.356;2023-12-29T05:17:58;11.57;;;2.30;;
24617;SDS011;12762;51.730;5.356;2023-12-29T05:20:25;11.47;;;1.93;;
24617;SDS011;12762;51.730;5.356;2023-12-29T05:22:52;14.93;;;2.17;;
24617;SDS011;12762;51.730;5.356;2023-12-29T05:25:18;11.23;;;1.97;;
24617;SDS011;12762;51.730;5.356;2023-12-29T05:27:48;13.90;;;1.87;;
24617;SDS011;12762;51.730;5.356;2023-12-29T05:30:15;13.60;;;2.07;;
24617;SDS011;12762;51.730;5.356;2023-12-29T05:32:42;12.40;;;2.43;;
24617;SDS011;12762;51.730;5.356;2023-12-29T05:35:09;14.07;;;2.07;;
24617;SDS011;12762;51.730;5.356;2023-12-29T05:37:36;10.97;;;1.77;;
24617;SDS011;12762;51.730;5.356;2023-12-29T05:40:03;14.20;;;2.63;;
24617;SDS011;12762;51.730;5.356;2023-12-29T05:42:33;12.47;;;1.73;;
24617;SDS011;12762;51.730;5.356;2023-12-29T05:45:00;13.00;;;1.83;;
24617;SDS011;12762;51.730;5.356;2023-12-29T05:47:29;11.63;;;1.53;;
24617;SDS011;12762;51.730;5.356;2023-12-29T05:49:59;12.13;;;2.00;;
24617;SDS011;12762;51.730;5.356;2023-12-29T05:52:26;11.87;;;1.73;;
24617;SDS011;12762;51.730;5.356;2023-12-29T05:54:53;11.70;;;2.37;;
24617;SDS011;12762;51.730;5.356;2023-12-29T05:57:19;11.23;;;2.17;;
24617;SDS011;12762;51.730;5.356;2023-12-29T05:59:49;10.63;;;2.13;;
24617;SDS011;12762;51.730;5.356;2023-12-29T06:02:16;9.13;;;1.60;;
24617;SDS011;12762;51.730;5.356;2023-12-29T06:04:43;9.43;;;1.80;;
24617;SDS011;12762;51.730;5.356;2023-12-29T06:07:10;7.13;;;1.43;;
24617;SDS011;12762;51.730;5.356;2023-12-29T06:09:37;8.23;;;1.63;;
24617;SDS011;12762;51.730;5.356;2023-12-29T06:12:10;17.97;;;2.30;;
24617;SDS011;12762;51.730;5.356;2023-12-29T06:14:36;13.47;;;1.47;;
24617;SDS011;12762;51.730;5.356;2023-12-29T06:17:03;13.97;;;2.50;;
24617;SDS011;12762;51.730;5.356;2023-12-29T06:19:30;7.70;;;1.40;;
24617;SDS011;12762;51.730;5.356;2023-12-29T06:21:59;11.53;;;1.80;;
24617;SDS011;12762;51.730;5.356;2023-12-29T06:24:28;11.13;;;1.90;;
24617;SDS011;12762;51.730;5.356;2023-12-29T06:26:55;9.00;;;1.20;;
24617;SDS011;12762;51.730;5.356;2023-12-29T06:29:22;9.43;;;1.60;;
24617;SDS011;12762;51.730;5.356;2023-12-29T06:31:49;10.93;;;1.63;;
24617;SDS011;12762;51.730;5.356;2023-12-29T06:34:16;10.30;;;1.70;;
24617;SDS011;12762;51.730;5.356;2023-12-29T06:36:43;7.00;;;1.23;;
24617;SDS011;12762;51.730;5.356;2023-12-29T06:39:09;6.30;;;1.30;;
24617;SDS011;12762;51.730;5.356;2023-12-29T06:41:36;5.53;;;2.10;;
24617;SDS011;12762;51.730;5.356;2023-12-29T06:44:03;4.73;;;1.27;;
24617;SDS011;12762;51.730;5.356;2023-12-29T06:46:30;8.87;;;1.20;;
24617;SDS011;12762;51.730;5.356;2023-12-29T06:48:57;11.53;;;2.00;;
24617;SDS011;12762;51.730;5.356;2023-12-29T06:51:25;9.83;;;1.97;;
24617;SDS011;12762;51.730;5.356;2023-12-29T06:53:52;10.17;;;1.60;;
24617;SDS011;12762;51.730;5.356;2023-12-29T06:56:19;14.47;;;2.00;;
24617;SDS011;12762;51.730;5.356;2023-12-29T06:58:46;8.63;;;1.70;;
24617;SDS011;12762;51.730;5.356;2023-12-29T07:01:15;8.60;;;1.83;;
24617;SDS011;12762;51.730;5.356;2023-12-29T07:03:43;8.00;;;1.60;;
24617;SDS011;12762;51.730;5.356;2023-12-29T07:06:10;7.57;;;1.70;;
24617;SDS011;12762;51.730;5.356;2023-12-29T07:08:37;8.53;;;1.60;;
24617;SDS011;12762;51.730;5.356;2023-12-29T07:11:08;7.50;;;1.70;;
24617;SDS011;12762;51.730;5.356;2023-12-29T07:13:37;7.73;;;1.60;;
24617;SDS011;12762;51.730;5.356;2023-12-29T07:16:04;11.20;;;1.57;;
24617;SDS011;12762;51.730;5.356;2023-12-29T07:18:31;11.67;;;1.50;;
24617;SDS011;12762;51.730;5.356;2023-12-29T07:20:58;7.73;;;1.57;;
24617;SDS011;12762;51.730;5.356;2023-12-29T07:23:25;7.17;;;1.60;;
24617;SDS011;12762;51.730;5.356;2023-12-29T07:25:51;12.27;;;1.63;;
24617;SDS011;12762;51.730;5.356;2023-12-29T07:28:21;8.90;;;1.70;;
24617;SDS011;12762;51.730;5.356;2023-12-29T07:30:48;10.10;;;1.50;;
24617;SDS011;12762;51.730;5.356;2023-12-29T07:33:15;5.43;;;1.20;;
24617;SDS011;12762;51.730;5.356;2023-12-29T07:35:42;9.57;;;2.07;;
24617;SDS011;12762;51.730;5.356;2023-12-29T07:38:09;9.07;;;1.53;;
24617;SDS011;12762;51.730;5.356;2023-12-29T07:40:36;5.80;;;1.40;;
24617;SDS011;12762;51.730;5.356;2023-12-29T07:43:03;7.63;;;1.30;;
24617;SDS011;12762;51.730;5.356;2023-12-29T07:45:30;5.57;;;1.13;;
24617;SDS011;12762;51.730;5.356;2023-12-29T07:47:57;5.20;;;1.57;;
24617;SDS011;12762;51.730;5.356;2023-12-29T07:50:24;8.93;;;1.43;;
24617;SDS011;12762;51.730;5.356;2023-12-29T07:52:51;8.23;;;1.80;;
24617;SDS011;12762;51.730;5.356;2023-12-29T07:55:17;7.00;;;1.13;;
24617;SDS011;12762;51.730;5.356;2023-12-29T07:57:44;7.40;;;2.10;;
24617;SDS011;12762;51.730;5.356;2023-12-29T08:00:16;8.67;;;1.87;;
24617;SDS011;12762;51.730;5.356;2023-12-29T08:02:43;11.13;;;1.83;;
24617;SDS011;12762;51.730;5.356;2023-12-29T08:05:11;4.93;;;1.33;;
24617;SDS011;12762;51.730;5.356;2023-12-29T08:07:38;6.83;;;1.90;;
24617;SDS011;12762;51.730;5.356;2023-12-29T08:10:05;7.53;;;1.60;;
24617;SDS011;12762;51.730;5.356;2023-12-29T08:12:33;10.87;;;1.60;;
24617;SDS011;12762;51.730;5.356;2023-12-29T08:15:02;10.33;;;1.57;;
24617;SDS011;12762;51.730;5.356;2023-12-29T08:17:29;5.03;;;1.30;;
24617;SDS011;12762;51.730;5.356;2023-12-29T08:19:57;4.80;;;1.30;;
24617;SDS011;12762;51.730;5.356;2023-12-29T08:22:24;5.80;;;1.20;;
24617;SDS011;12762;51.730;5.356;2023-12-29T08:24:54;4.57;;;1.27;;
24617;SDS011;12762;51.730;5.356;2023-12-29T08:27:24;7.03;;;1.50;;
24617;SDS011;12762;51.730;5.356;2023-12-29T08:29:54;6.80;;;1.37;;
24617;SDS011;12762;51.730;5.356;2023-12-29T08:32:21;5.53;;;1.10;;
24617;SDS011;12762;51.730;5.356;2023-12-29T08:34:48;4.37;;;1.30;;
24617;SDS011;12762;51.730;5.356;2023-12-29T08:37:16;5.17;;;1.10;;
24617;SDS011;12762;51.730;5.356;2023-12-29T08:39:47;4.50;;;1.10;;
24617;SDS011;12762;51.730;5.356;2023-12-29T08:42:14;3.43;;;0.97;;
24617;SDS011;12762;51.730;5.356;2023-12-29T08:44:41;4.10;;;1.07;;
24617;SDS011;12762;51.730;5.356;2023-12-29T08:47:10;4.60;;;1.10;;
24617;SDS011;12762;51.730;5.356;2023-12-29T08:49:37;7.67;;;1.17;;
24617;SDS011;12762;51.730;5.356;2023-12-29T08:52:07;2.13;;;0.90;;
24617;SDS011;12762;51.730;5.356;2023-12-29T08:54:39;5.47;;;1.20;;
24617;SDS011;12762;51.730;5.356;2023-12-29T08:57:06;3.70;;;0.70;;
24617;SDS011;12762;51.730;5.356;2023-12-29T08:59:33;5.43;;;1.30;;
24617;SDS011;12762;51.730;5.356;2023-12-29T09:02:00;3.83;;;1.20;;
24617;SDS011;12762;51.730;5.356;2023-12-29T09:04:27;5.00;;;1.00;;
24617;SDS011;12762;51.730;5.356;2023-12-29T09:06:53;3.97;;;0.83;;
24617;SDS011;12762;51.730;5.356;2023-12-29T09:09:20;4.43;;;1.23;;
24617;SDS011;12762;51.730;5.356;2023-12-29T09:11:47;6.73;;;1.30;;
24617;SDS011;12762;51.730;5.356;2023-12-29T09:14:14;4.10;;;1.10;;
24617;SDS011;12762;51.730;5.356;2023-12-29T09:16:41;5.07;;;0.87;;
24617;SDS011;12762;51.730;5.356;2023-12-29T09:19:10;3.80;;;0.90;;
24617;SDS011;12762;51.730;5.356;2023-12-29T09:21:40;2.43;;;0.70;;
24617;SDS011;12762;51.730;5.356;2023-12-29T09:24:09;2.90;;;0.90;;
24617;SDS011;12762;51.730;5.356;2023-12-29T09:26:36;3.20;;;0.80;;
24617;SDS011;12762;51.730;5.356;2023-12-29T09:29:03;4.67;;;0.90;;
24617;SDS011;12762;51.730;5.356;2023-12-29T09:31:29;3.07;;;0.80;;
24617;SDS011;12762;51.730;5.356;2023-12-29T09:33:59;2.00;;;1.30;;
24617;SDS011;12762;51.730;5.356;2023-12-29T09:36:27;6.13;;;1.20;;
24617;SDS011;12762;51.730;5.356;2023-12-29T09:38:57;4.70;;;1.27;;
24617;SDS011;12762;51.730;5.356;2023-12-29T09:41:23;4.70;;;1.07;;
24617;SDS011;12762;51.730;5.356;2023-12-29T09:43:52;3.63;;;1.20;;
24617;SDS011;12762;51.730;5.356;2023-12-29T09:46:21;3.93;;;0.93;;
24617;SDS011;12762;51.730;5.356;2023-12-29T09:48:49;2.37;;;0.80;;
24617;SDS011;12762;51.730;5.356;2023-12-29T09:51:18;5.63;;;1.20;;
24617;SDS011;12762;51.730;5.356;2023-12-29T09:53:49;5.10;;;1.00;;
24617;SDS011;12762;51.730;5.356;2023-12-29T09:56:18;3.97;;;0.80;;
24617;SDS011;12762;51.730;5.356;2023-12-29T09:58:48;3.23;;;0.80;;
24617;SDS011;12762;51.730;5.356;2023-12-29T10:01:17;5.03;;;0.90;;
24617;SDS011;12762;51.730;5.356;2023-12-29T10:03:46;2.50;;;0.67;;
24617;SDS011;12762;51.730;5.356;2023-12-29T10:06:16;3.23;;;0.80;;
24617;SDS011;12762;51.730;5.356;2023-12-29T10:08:49;4.30;;;0.90;;
24617;SDS011;12762;51.730;5.356;2023-12-29T10:11:17;3.20;;;0.63;;
24617;SDS011;12762;51.730;5.356;2023-12-29T10:13:47;4.50;;;0.83;;
24617;SDS011;12762;51.730;5.356;2023-12-29T10:16:35;3.03;;;0.83;;
24617;SDS011;12762;51.730;5.356;2023-12-29T10:19:16;2.30;;;0.83;;
24617;SDS011;12762;51.730;5.356;2023-12-29T10:22:03;2.10;;;0.70;;
24617;SDS011;12762;51.730;5.356;2023-12-29T10:24:47;2.97;;;0.83;;
24617;SDS011;12762;51.730;5.356;2023-12-29T10:27:16;1.80;;;0.63;;
24617;SDS011;12762;51.730;5.356;2023-12-29T10:29:44;2.10;;;0.87;;
24617;SDS011;12762;51.730;5.356;2023-12-29T10:32:11;3.07;;;0.70;;
24617;SDS011;12762;51.730;5.356;2023-12-29T10:34:38;3.60;;;0.87;;
24617;SDS011;12762;51.730;5.356;2023-12-29T10:37:05;5.00;;;0.70;;
24617;SDS011;12762;51.730;5.356;2023-12-29T10:39:35;1.30;;;0.70;;
24617;SDS011;12762;51.730;5.356;2023-12-29T10:44:32;2.33;;;0.90;;
24617;SDS011;12762;51.730;5.356;2023-12-29T10:47:07;2.47;;;0.70;;
24617;SDS011;12762;51.730;5.356;2023-12-29T10:49:35;4.00;;;0.70;;
24617;SDS011;12762;51.730;5.356;2023-12-29T10:52:10;3.10;;;0.93;;
24617;SDS011;12762;51.730;5.356;2023-12-29T10:54:41;3.40;;;1.00;;
24617;SDS011;12762;51.730;5.356;2023-12-29T10:57:12;3.17;;;1.10;;
24617;SDS011;12762;51.730;5.356;2023-12-29T10:59:39;3.77;;;1.00;;
24617;SDS011;12762;51.730;5.356;2023-12-29T11:02:12;3.47;;;1.10;;
24617;SDS011;12762;51.730;5.356;2023-12-29T11:04:44;3.47;;;0.90;;
24617;SDS011;12762;51.730;5.356;2023-12-29T11:07:12;2.63;;;0.90;;
24617;SDS011;12762;51.730;5.356;2023-12-29T11:09:42;3.23;;;1.07;;
24617;SDS011;12762;51.730;5.356;2023-12-29T11:12:10;3.87;;;0.90;;
24617;SDS011;12762;51.730;5.356;2023-12-29T11:14:40;3.60;;;0.80;;
24617;SDS011;12762;51.730;5.356;2023-12-29T11:17:10;1.87;;;0.70;;
24617;SDS011;12762;51.730;5.356;2023-12-29T11:19:38;3.37;;;1.07;;
24617;SDS011;12762;51.730;5.356;2023-12-29T11:22:06;1.20;;;0.70;;
24617;SDS011;12762;51.730;5.356;2023-12-29T11:24:35;6.57;;;1.40;;
24617;SDS011;12762;51.730;5.356;2023-12-29T11:27:08;3.23;;;0.60;;
24617;SDS011;12762;51.730;5.356;2023-12-29T11:29:37;5.63;;;1.20;;
24617;SDS011;12762;51.730;5.356;2023-12-29T11:32:11;6.47;;;1.17;;
24617;SDS011;12762;51.730;5.356;2023-12-29T11:34:44;6.17;;;0.70;;
24617;SDS011;12762;51.730;5.356;2023-12-29T11:37:21;5.13;;;1.10;;
24617;SDS011;12762;51.730;5.356;2023-12-29T11:40:23;9.10;;;1.47;;
24617;SDS011;12762;51.730;5.356;2023-12-29T11:43:18;5.60;;;1.20;;
24617;SDS011;12762;51.730;5.356;2023-12-29T11:45:45;7.03;;;0.80;;
24617;SDS011;12762;51.730;5.356;2023-12-29T11:48:52;11.37;;;1.37;;
24617;SDS011;12762;51.730;5.356;2023-12-29T11:51:45;7.83;;;1.43;;
24617;SDS011;12762;51.730;5.356;2023-12-29T11:54:24;4.50;;;1.30;;
24617;SDS011;12762;51.730;5.356;2023-12-29T11:57:02;9.27;;;2.07;;
24617;SDS011;12762;51.730;5.356;2023-12-29T11:59:33;6.33;;;1.20;;
24617;SDS011;12762;51.730;5.356;2023-12-29T12:05:49;5.13;;;1.30;;
24617;SDS011;12762;51.730;5.356;2023-12-29T12:14:04;9.23;;;1.60;;
24617;SDS011;12762;51.730;5.356;2023-12-29T12:19:12;5.07;;;1.37;;
24617;SDS011;12762;51.730;5.356;2023-12-29T12:21:40;8.77;;;1.90;;
24617;SDS011;12762;51.730;5.356;2023-12-29T12:24:07;11.77;;;1.80;;
24617;SDS011;12762;51.730;5.356;2023-12-29T12:26:35;6.87;;;1.70;;
24617;SDS011;12762;51.730;5.356;2023-12-29T12:29:02;5.93;;;1.40;;
24617;SDS011;12762;51.730;5.356;2023-12-29T12:31:32;5.07;;;1.10;;
24617;SDS011;12762;51.730;5.356;2023-12-29T12:33:59;7.60;;;1.57;;
24617;SDS011;12762;51.730;5.356;2023-12-29T12:36:26;11.83;;;2.00;;
24617;SDS011;12762;51.730;5.356;2023-12-29T12:38:54;6.10;;;1.47;;
24617;SDS011;12762;51.730;5.356;2023-12-29T12:41:25;9.60;;;1.73;;
24617;SDS011;12762;51.730;5.356;2023-12-29T12:44:12;5.80;;;1.60;;
24617;SDS011;12762;51.730;5.356;2023-12-29T12:46:50;7.37;;;1.30;;
24617;SDS011;12762;51.730;5.356;2023-12-29T12:49:23;5.57;;;1.50;;
24617;SDS011;12762;51.730;5.356;2023-12-29T12:51:52;6.30;;;1.50;;
24617;SDS011;12762;51.730;5.356;2023-12-29T12:54:20;10.80;;;1.67;;
24617;SDS011;12762;51.730;5.356;2023-12-29T12:56:50;8.53;;;1.30;;
24617;SDS011;12762;51.730;5.356;2023-12-29T12:59:20;6.63;;;1.53;;
24617;SDS011;12762;51.730;5.356;2023-12-29T13:01:47;7.80;;;1.70;;
24617;SDS011;12762;51.730;5.356;2023-12-29T13:04:15;5.30;;;1.23;;
24617;SDS011;12762;51.730;5.356;2023-12-29T13:06:47;6.47;;;1.63;;
24617;SDS011;12762;51.730;5.356;2023-12-29T13:09:17;12.57;;;2.10;;
24617;SDS011;12762;51.730;5.356;2023-12-29T13:11:46;5.27;;;1.60;;
24617;SDS011;12762;51.730;5.356;2023-12-29T13:14:22;7.67;;;1.97;;
24617;SDS011;12762;51.730;5.356;2023-12-29T13:16:49;6.40;;;1.63;;
24617;SDS011;12762;51.730;5.356;2023-12-29T13:19:20;5.53;;;1.13;;
24617;SDS011;12762;51.730;5.356;2023-12-29T13:21:53;4.03;;;1.27;;
24617;SDS011;12762;51.730;5.356;2023-12-29T13:24:22;9.10;;;1.93;;
24617;SDS011;12762;51.730;5.356;2023-12-29T13:27:05;8.97;;;1.77;;
24617;SDS011;12762;51.730;5.356;2023-12-29T13:29:34;8.83;;;1.60;;
24617;SDS011;12762;51.730;5.356;2023-12-29T13:32:16;5.67;;;1.80;;
24617;SDS011;12762;51.730;5.356;2023-12-29T13:37:51;9.17;;;2.43;;
24617;SDS011;12762;51.730;5.356;2023-12-29T13:40:46;5.07;;;2.23;;
24617;SDS011;12762;51.730;5.356;2023-12-29T13:43:17;7.63;;;3.03;;
24617;SDS011;12762;51.730;5.356;2023-12-29T13:45:46;8.83;;;1.87;;
24617;SDS011;12762;51.730;5.356;2023-12-29T13:48:14;3.17;;;1.60;;
24617;SDS011;12762;51.730;5.356;2023-12-29T13:51:08;4.97;;;1.30;;
24617;SDS011;12762;51.730;5.356;2023-12-29T13:53:39;4.77;;;1.17;;
24617;SDS011;12762;51.730;5.356;2023-12-29T13:56:09;4.40;;;1.17;;
24617;SDS011;12762;51.730;5.356;2023-12-29T13:58:37;2.57;;;1.20;;
24617;SDS011;12762;51.730;5.356;2023-12-29T14:01:06;5.10;;;1.40;;
24617;SDS011;12762;51.730;5.356;2023-12-29T14:03:54;4.73;;;1.23;;
24617;SDS011;12762;51.730;5.356;2023-12-29T14:06:32;1.90;;;1.07;;
24617;SDS011;12762;51.730;5.356;2023-12-29T14:09:13;4.00;;;1.20;;
24617;SDS011;12762;51.730;5.356;2023-12-29T14:11:46;4.97;;;1.63;;
24617;SDS011;12762;51.730;5.356;2023-12-29T14:14:13;5.80;;;1.60;;
24617;SDS011;12762;51.730;5.356;2023-12-29T14:16:40;2.27;;;1.40;;
24617;SDS011;12762;51.730;5.356;2023-12-29T14:19:16;4.83;;;1.60;;
24617;SDS011;12762;51.730;5.356;2023-12-29T14:21:43;5.93;;;1.50;;
24617;SDS011;12762;51.730;5.356;2023-12-29T14:24:13;5.23;;;1.60;;
24617;SDS011;12762;51.730;5.356;2023-12-29T14:29:21;6.60;;;1.77;;
24617;SDS011;12762;51.730;5.356;2023-12-29T14:31:49;5.67;;;1.90;;
24617;SDS011;12762;51.730;5.356;2023-12-29T14:34:19;7.97;;;1.83;;
24617;SDS011;12762;51.730;5.356;2023-12-29T14:36:46;4.53;;;1.60;;
24617;SDS011;12762;51.730;5.356;2023-12-29T14:39:13;5.27;;;1.53;;
24617;SDS011;12762;51.730;5.356;2023-12-29T14:41:41;5.30;;;1.53;;
24617;SDS011;12762;51.730;5.356;2023-12-29T14:44:09;4.63;;;1.60;;
24617;SDS011;12762;51.730;5.356;2023-12-29T14:46:36;4.70;;;1.50;;
24617;SDS011;12762;51.730;5.356;2023-12-29T14:49:04;3.83;;;1.20;;
24617;SDS011;12762;51.730;5.356;2023-12-29T14:51:31;3.73;;;1.37;;
24617;SDS011;12762;51.730;5.356;2023-12-29T14:53:58;3.43;;;1.20;;
24617;SDS011;12762;51.730;5.356;2023-12-29T14:56:25;5.93;;;1.27;;
24617;SDS011;12762;51.730;5.356;2023-12-29T14:58:52;3.67;;;1.23;;
24617;SDS011;12762;51.730;5.356;2023-12-29T15:01:19;4.80;;;1.40;;
24617;SDS011;12762;51.730;5.356;2023-12-29T15:03:49;4.27;;;1.17;;
24617;SDS011;12762;51.730;5.356;2023-12-29T15:06:16;2.80;;;1.00;;
24617;SDS011;12762;51.730;5.356;2023-12-29T15:08:43;7.17;;;1.13;;
24617;SDS011;12762;51.730;5.356;2023-12-29T15:11:09;4.97;;;1.20;;
24617;SDS011;12762;51.730;5.356;2023-12-29T15:13:36;5.63;;;1.07;;
24617;SDS011;12762;51.730;5.356;2023-12-29T15:16:04;6.77;;;1.20;;
24617;SDS011;12762;51.730;5.356;2023-12-29T15:18:33;3.63;;;1.17;;
24617;SDS011;12762;51.730;5.356;2023-12-29T15:21:03;5.93;;;1.40;;